createdAt,value
2019-01-08T00:01:23.883Z,2.30
2019-01-08T00:04:14.185Z,2.37
2019-01-08T00:07:01.945Z,2.20
2019-01-08T00:09:51.704Z,2.03
2019-01-08T00:12:39.845Z,1.97
2019-01-08T00:15:28.858Z,1.80
2019-01-08T00:18:16.743Z,1.80
2019-01-08T00:21:04.336Z,1.93
2019-01-08T00:23:51.829Z,1.93
2019-01-08T00:26:39.346Z,1.77
2019-01-08T00:29:27.874Z,1.77
2019-01-08T00:32:15.822Z,1.77
2019-01-08T00:35:03.986Z,1.80
2019-01-08T00:37:51.376Z,1.70
2019-01-08T00:40:39.382Z,1.57
2019-01-08T00:43:27.124Z,1.57
2019-01-08T00:46:15.686Z,1.43
2019-01-08T00:49:03.422Z,1.40
2019-01-08T00:51:50.860Z,1.30
2019-01-08T00:54:38.782Z,1.40
2019-01-08T00:57:30.659Z,1.50
2019-01-08T01:00:27.043Z,1.40
2019-01-08T01:03:13.495Z,1.30
2019-01-08T01:06:00.918Z,1.40
2019-01-08T01:08:48.841Z,1.33
2019-01-08T01:11:36.680Z,1.50
2019-01-08T01:14:25.019Z,1.23
2019-01-08T01:17:12.719Z,1.00
2019-01-08T01:20:00.861Z,0.90
2019-01-08T01:22:48.555Z,1.03
2019-01-08T01:25:39.169Z,1.03
2019-01-08T01:28:26.864Z,1.20
2019-01-08T01:31:14.721Z,1.17
2019-01-08T01:34:02.899Z,0.90
2019-01-08T01:36:53.314Z,0.90
2019-01-08T01:39:50.347Z,0.77
2019-01-08T01:43:25.741Z,1.00
2019-01-08T01:46:13.195Z,1.00
2019-01-08T01:49:00.801Z,0.80
2019-01-08T01:51:48.200Z,0.77
2019-01-08T01:54:38.145Z,0.90
2019-01-08T01:57:26.091Z,0.80
2019-01-08T02:00:14.839Z,1.00
2019-01-08T02:03:02.487Z,0.97
2019-01-08T02:05:50.653Z,0.90
2019-01-08T02:08:39.679Z,1.10
2019-01-08T02:14:45.154Z,0.90
2019-01-08T02:17:32.995Z,0.90
2019-01-08T02:20:22.761Z,0.93
2019-01-08T02:23:12.121Z,1.00
2019-01-08T02:25:59.635Z,0.90
2019-01-08T02:28:47.275Z,1.10
2019-01-08T02:31:35.084Z,1.10
2019-01-08T02:34:22.999Z,1.20
2019-01-08T02:37:12.921Z,1.10
2019-01-08T02:40:00.680Z,1.30
2019-01-08T02:42:56.430Z,1.20
2019-01-08T02:45:56.511Z,1.20
2019-01-08T02:48:48.248Z,1.17
2019-01-08T02:55:05.737Z,1.20
2019-01-08T02:57:59.573Z,1.17
2019-01-08T03:00:51.030Z,1.37
2019-01-08T03:03:39.217Z,1.90
2019-01-08T03:06:26.498Z,1.80
2019-01-08T03:09:15.356Z,2.30
2019-01-08T03:12:03.177Z,2.17
2019-01-08T03:14:51.288Z,2.20
2019-01-08T03:17:39.224Z,2.23
2019-01-08T03:20:27.019Z,2.30
2019-01-08T03:23:14.770Z,2.50
2019-01-08T03:26:03.209Z,2.73
2019-01-08T03:28:51.006Z,2.80
2019-01-08T03:31:41.567Z,2.40
2019-01-08T03:34:31.040Z,2.40
2019-01-08T03:37:19.700Z,1.90
2019-01-08T03:40:08.112Z,2.20
2019-01-08T03:42:57.451Z,1.67
2019-01-08T03:45:44.919Z,1.37
2019-01-08T03:48:40.732Z,1.07
2019-01-08T03:51:27.828Z,1.10
2019-01-08T03:54:17.135Z,0.93
2019-01-08T03:57:05.677Z,0.80
2019-01-08T04:03:18.251Z,0.70
2019-01-08T04:06:05.393Z,0.83
2019-01-08T04:08:52.998Z,0.60
2019-01-08T04:11:41.421Z,0.50
2019-01-08T04:14:30.296Z,0.60
2019-01-08T04:17:20.973Z,0.50
2019-01-08T04:20:08.778Z,0.60
2019-01-08T04:22:57.739Z,0.50
2019-01-08T04:25:47.151Z,0.43
2019-01-08T04:28:34.649Z,0.30
2019-01-08T04:31:22.849Z,0.30
2019-01-08T04:34:10.446Z,0.30
2019-01-08T04:37:01.686Z,0.30
2019-01-08T04:40:33.742Z,0.40
2019-01-08T04:43:21.342Z,0.40
2019-01-08T04:46:08.911Z,0.50
2019-01-08T04:48:57.901Z,0.50
2019-01-08T04:51:48.844Z,0.40
2019-01-08T04:54:36.109Z,0.50
2019-01-08T04:57:23.654Z,0.50
2019-01-08T05:00:12.143Z,0.43
2019-01-08T05:03:14.270Z,0.40
2019-01-08T05:05:48.542Z,0.53
2019-01-08T05:08:37.595Z,0.50
2019-01-08T05:11:25.253Z,0.50
2019-01-08T05:14:14.042Z,0.60
2019-01-08T05:17:03.236Z,0.50
2019-01-08T05:19:51.243Z,0.50
2019-01-08T05:22:38.958Z,0.50
2019-01-08T05:25:26.633Z,0.63
2019-01-08T05:28:14.677Z,0.70
2019-01-08T05:31:02.142Z,0.80
2019-01-08T05:33:49.647Z,1.00
2019-01-08T05:36:44.810Z,0.80
2019-01-08T05:39:38.473Z,0.80
2019-01-08T05:42:36.699Z,1.17
2019-01-08T05:45:27.264Z,1.10
2019-01-08T05:48:14.930Z,1.50
2019-01-08T05:51:03.726Z,1.40
2019-01-08T05:53:51.578Z,1.37
2019-01-08T05:56:39.456Z,1.10
2019-01-08T05:59:27.842Z,1.00
2019-01-08T06:02:15.363Z,1.10
2019-01-08T06:05:03.899Z,1.27
2019-01-08T06:07:51.751Z,1.30
2019-01-08T06:10:39.468Z,1.17
2019-01-08T06:13:27.370Z,1.40
2019-01-08T06:16:15.242Z,1.17
2019-01-08T06:19:08.414Z,1.60
2019-01-08T06:21:57.525Z,1.70
2019-01-08T06:24:45.208Z,1.57
2019-01-08T06:27:33.225Z,1.80
2019-01-08T06:30:24.686Z,1.47
2019-01-08T06:33:09.887Z,1.60
2019-01-08T06:35:57.707Z,1.63
2019-01-08T06:38:46.246Z,1.70
2019-01-08T06:41:33.415Z,1.53
2019-01-08T06:44:20.853Z,1.50
2019-01-08T06:47:10.035Z,1.70
2019-01-08T06:49:57.725Z,1.60
2019-01-08T06:52:45.416Z,1.90
2019-01-08T06:55:33.469Z,1.90
2019-01-08T06:58:21.236Z,1.77
2019-01-08T07:01:09.021Z,2.00
2019-01-08T07:03:56.688Z,2.00
2019-01-08T07:06:44.414Z,2.07
2019-01-08T07:09:32.351Z,2.07
2019-01-08T07:12:20.280Z,1.90
2019-01-08T07:15:08.627Z,2.20
2019-01-08T07:17:56.745Z,2.77
2019-01-08T07:20:44.804Z,2.60
2019-01-08T07:23:32.614Z,2.90
2019-01-08T07:26:20.222Z,3.17
2019-01-08T07:29:07.765Z,3.20
2019-01-08T07:31:55.240Z,3.03
2019-01-08T07:34:43.083Z,2.80
2019-01-08T07:37:31.134Z,3.20
2019-01-08T07:40:19.146Z,3.40
2019-01-08T07:43:07.405Z,2.80
2019-01-08T07:45:55.157Z,3.10
2019-01-08T07:48:42.721Z,3.23
2019-01-08T07:51:31.187Z,3.30
2019-01-08T07:54:18.989Z,3.77
2019-01-08T07:57:06.996Z,4.37
2019-01-08T07:59:54.954Z,4.80
2019-01-08T08:02:42.495Z,5.23
2019-01-08T08:05:31.520Z,4.97
2019-01-08T08:08:19.761Z,5.30
2019-01-08T08:11:07.208Z,5.93
2019-01-08T08:13:55.143Z,4.00
2019-01-08T08:16:43.597Z,5.13
2019-01-08T08:19:32.093Z,4.27
2019-01-08T08:22:19.715Z,3.60
2019-01-08T08:25:07.511Z,4.17
2019-01-08T08:27:55.410Z,3.93
2019-01-08T08:30:43.587Z,4.60
2019-01-08T08:33:32.335Z,5.03
2019-01-08T08:36:20.078Z,3.67
2019-01-08T08:39:08.012Z,3.73
2019-01-08T08:41:57.369Z,3.10
2019-01-08T08:44:45.069Z,2.03
2019-01-08T08:47:32.886Z,2.20
2019-01-08T08:50:21.586Z,1.87
2019-01-08T08:53:12.977Z,1.97
2019-01-08T08:56:00.603Z,1.60
2019-01-08T08:58:48.260Z,1.40
2019-01-08T09:01:35.855Z,1.40
2019-01-08T09:04:23.511Z,1.40
2019-01-08T09:07:11.176Z,1.50
2019-01-08T09:09:58.527Z,1.50
2019-01-08T09:12:45.685Z,1.80
2019-01-08T09:15:35.409Z,1.77
2019-01-08T09:18:22.717Z,1.63
2019-01-08T09:21:10.257Z,1.43
2019-01-08T09:23:58.341Z,1.40
2019-01-08T09:26:46.824Z,1.20
2019-01-08T09:29:34.863Z,1.20
2019-01-08T09:32:22.050Z,1.03
2019-01-08T09:35:09.986Z,0.87
2019-01-08T09:37:58.425Z,0.70
2019-01-08T09:40:47.368Z,0.63
2019-01-08T09:43:34.929Z,0.70
2019-01-08T09:46:22.723Z,0.50
2019-01-08T09:49:10.406Z,0.60
2019-01-08T09:51:57.960Z,0.50
2019-01-08T09:54:56.888Z,0.50
2019-01-08T09:57:45.936Z,0.50
2019-01-08T10:00:33.735Z,0.70
2019-01-08T10:03:21.461Z,0.63
2019-01-08T10:06:09.628Z,0.60
2019-01-08T10:08:57.119Z,0.50
2019-01-08T10:11:48.170Z,0.60
2019-01-08T10:14:35.996Z,0.50
2019-01-08T10:17:23.159Z,0.70
2019-01-08T10:20:10.630Z,0.70
2019-01-08T10:22:58.591Z,0.53
2019-01-08T10:25:46.861Z,0.40
2019-01-08T10:28:34.149Z,0.40
2019-01-08T10:31:22.028Z,0.60
2019-01-08T10:34:09.916Z,0.50
2019-01-08T10:36:57.506Z,0.50
2019-01-08T10:39:45.365Z,0.77
2019-01-08T10:42:33.290Z,0.50
2019-01-08T10:45:21.018Z,0.30
2019-01-08T10:48:08.504Z,0.30
2019-01-08T10:50:58.150Z,0.40
2019-01-08T10:53:46.187Z,0.50
2019-01-08T10:56:34.333Z,0.30
2019-01-08T10:59:22.465Z,0.37
2019-01-08T11:02:10.018Z,0.30
2019-01-08T11:04:57.316Z,0.23
2019-01-08T11:07:45.322Z,0.30
2019-01-08T11:10:32.488Z,0.30
2019-01-08T11:13:21.462Z,0.37
2019-01-08T11:16:09.210Z,0.40
2019-01-08T11:18:56.874Z,0.30
2019-01-08T11:21:51.019Z,0.40
2019-01-08T11:24:39.520Z,0.70
2019-01-08T11:27:27.577Z,0.60
2019-01-08T11:30:22.212Z,0.50
2019-01-08T11:33:09.934Z,1.23
2019-01-08T11:35:57.616Z,0.60
2019-01-08T11:38:45.561Z,0.30
2019-01-08T11:41:33.343Z,0.40
2019-01-08T11:44:20.668Z,0.20
2019-01-08T11:47:08.442Z,0.37
2019-01-08T11:49:56.237Z,0.30
2019-01-08T11:52:47.845Z,0.23
2019-01-08T11:55:38.211Z,0.40
2019-01-08T11:58:25.646Z,0.40
2019-01-08T12:01:16.716Z,0.43
2019-01-08T12:04:04.568Z,0.30
2019-01-08T12:06:52.507Z,0.40
2019-01-08T12:09:40.421Z,0.30
2019-01-08T12:12:28.417Z,0.30
2019-01-08T12:15:16.393Z,0.30
2019-01-08T12:18:04.550Z,0.20
2019-01-08T12:20:52.034Z,0.40
2019-01-08T12:23:40.647Z,0.40
2019-01-08T12:26:28.698Z,0.40
2019-01-08T12:29:18.848Z,0.40
2019-01-08T12:32:06.731Z,0.37
2019-01-08T12:34:56.258Z,0.20
2019-01-08T12:37:43.869Z,0.27
2019-01-08T12:40:31.199Z,0.20
2019-01-08T12:43:18.631Z,0.20
2019-01-08T12:46:06.055Z,0.30
2019-01-08T12:48:54.227Z,0.23
2019-01-08T12:51:41.897Z,0.40
2019-01-08T12:54:29.384Z,0.60
2019-01-08T12:57:17.740Z,0.47
2019-01-08T13:00:06.142Z,0.20
2019-01-08T13:02:53.684Z,0.23
2019-01-08T13:05:41.113Z,0.27
2019-01-08T13:08:28.542Z,0.40
2019-01-08T13:11:17.522Z,0.20
2019-01-08T13:14:06.354Z,0.20
2019-01-08T13:16:55.336Z,0.13
2019-01-08T13:19:43.432Z,0.10
2019-01-08T13:22:32.054Z,0.40
2019-01-08T13:25:19.692Z,0.10
2019-01-08T13:28:07.416Z,0.60
2019-01-08T13:30:55.033Z,0.30
2019-01-08T13:33:42.991Z,0.20
2019-01-08T13:36:30.661Z,0.10
2019-01-08T13:39:18.332Z,0.10
2019-01-08T13:42:05.837Z,0.10
2019-01-08T13:48:14.771Z,0.20
2019-01-08T13:51:02.491Z,0.10
2019-01-08T13:53:50.338Z,0.10
2019-01-08T13:56:39.703Z,0.10
2019-01-08T13:59:27.100Z,0.20
2019-01-08T14:02:14.965Z,0.10
2019-01-08T14:05:03.073Z,0.33
2019-01-08T14:07:51.089Z,0.40
2019-01-08T14:10:38.630Z,0.20
2019-01-08T14:13:26.032Z,0.20
2019-01-08T14:16:15.310Z,0.20
2019-01-08T14:19:03.235Z,0.10
2019-01-08T14:21:50.388Z,0.10
2019-01-08T14:24:37.945Z,0.20
2019-01-08T14:27:25.698Z,0.37
2019-01-08T14:30:13.026Z,0.20
2019-01-08T14:33:03.534Z,0.20
2019-01-08T14:35:51.635Z,0.20
2019-01-08T14:38:40.821Z,0.23
2019-01-08T14:41:28.242Z,0.30
2019-01-08T14:44:15.793Z,0.20
2019-01-08T14:47:03.375Z,0.20
2019-01-08T14:49:50.708Z,0.23
2019-01-08T14:52:39.388Z,0.10
2019-01-08T14:55:26.637Z,0.20
2019-01-08T14:58:15.042Z,0.27
2019-01-08T15:01:02.724Z,0.23
2019-01-08T15:03:52.122Z,0.43
2019-01-08T15:06:39.225Z,0.47
2019-01-08T15:09:27.220Z,0.50
2019-01-08T15:12:15.277Z,0.60
2019-01-08T15:15:02.977Z,0.60
2019-01-08T15:17:50.229Z,0.50
2019-01-08T15:20:40.897Z,0.70
2019-01-08T15:23:29.502Z,0.70
2019-01-08T15:26:17.328Z,0.70
2019-01-08T15:29:04.753Z,0.67
2019-01-08T15:31:52.199Z,0.70
2019-01-08T15:34:41.572Z,0.70
2019-01-08T15:37:29.617Z,0.80
2019-01-08T15:40:18.744Z,0.70
2019-01-08T15:43:06.843Z,0.73
2019-01-08T15:45:54.878Z,0.50
2019-01-08T15:48:44.050Z,0.70
2019-01-08T15:51:31.828Z,0.30
2019-01-08T15:54:20.789Z,0.40
2019-01-08T15:57:08.361Z,0.30
2019-01-08T15:59:55.677Z,0.40
2019-01-08T16:02:42.839Z,0.30
2019-01-08T16:05:31.172Z,0.40
2019-01-08T16:08:19.285Z,0.20
2019-01-08T16:11:07.286Z,0.30
2019-01-08T16:13:55.723Z,0.30
2019-01-08T16:16:45.293Z,0.20
2019-01-08T16:19:32.985Z,0.53
2019-01-08T16:22:21.910Z,0.50
2019-01-08T16:25:09.740Z,0.40
2019-01-08T16:28:01.825Z,0.20
2019-01-08T16:30:51.154Z,0.10
2019-01-08T16:33:38.787Z,0.30
2019-01-08T16:36:26.497Z,0.30
2019-01-08T16:39:14.014Z,0.20
2019-01-08T16:42:03.737Z,0.20
2019-01-08T16:45:17.514Z,0.10
2019-01-08T16:48:04.794Z,0.10
2019-01-08T16:50:55.783Z,0.13
2019-01-08T16:53:43.593Z,0.20
2019-01-08T16:56:31.135Z,0.20
2019-01-08T16:59:19.096Z,0.13
2019-01-08T17:02:07.055Z,0.20
2019-01-08T17:04:55.006Z,0.20
2019-01-08T17:07:42.795Z,0.20
2019-01-08T17:10:31.857Z,0.10
2019-01-08T17:13:19.687Z,0.10
2019-01-08T17:16:07.517Z,0.07
2019-01-08T17:18:55.448Z,0.10
2019-01-08T17:21:43.911Z,0.20
2019-01-08T17:24:31.763Z,0.30
2019-01-08T17:27:19.541Z,0.37
2019-01-08T17:30:10.967Z,0.30
2019-01-08T17:32:58.353Z,0.30
2019-01-08T17:35:47.623Z,0.30
2019-01-08T17:38:35.852Z,0.20
2019-01-08T17:41:23.791Z,0.30
2019-01-08T17:44:10.998Z,0.10
2019-01-08T17:46:58.649Z,0.10
2019-01-08T17:49:46.011Z,0.30
2019-01-08T17:52:33.968Z,0.20
2019-01-08T17:55:21.958Z,0.20
2019-01-08T17:58:31.828Z,0.10
2019-01-08T18:01:21.447Z,0.20
2019-01-08T18:04:09.615Z,0.00
2019-01-08T18:07:06.157Z,0.30
2019-01-08T18:09:54.005Z,0.10
2019-01-08T18:12:42.034Z,0.10
2019-01-08T18:15:30.876Z,0.03
2019-01-08T18:18:20.274Z,0.00
2019-01-08T18:21:07.651Z,0.10
2019-01-08T18:23:55.832Z,0.17
2019-01-08T18:26:43.147Z,0.10
2019-01-08T18:29:31.165Z,0.00
2019-01-08T18:32:19.587Z,0.10
2019-01-08T18:35:07.189Z,0.00
2019-01-08T18:38:03.874Z,0.10
2019-01-08T18:40:51.432Z,0.10
2019-01-08T18:43:38.911Z,0.07
2019-01-08T18:46:27.763Z,0.07
2019-01-08T18:49:15.937Z,0.00
2019-01-08T18:52:03.801Z,0.17
2019-01-08T18:54:51.085Z,0.10
2019-01-08T18:57:39.182Z,0.30
2019-01-08T19:00:26.635Z,0.10
2019-01-08T19:03:15.205Z,0.10
2019-01-08T19:06:02.592Z,0.10
2019-01-08T19:09:08.848Z,0.00
2019-01-08T19:11:56.693Z,0.03
2019-01-08T19:14:45.060Z,0.00
2019-01-08T19:17:33.350Z,0.10
2019-01-08T19:20:21.142Z,0.13
2019-01-08T19:23:10.281Z,0.00
2019-01-08T19:25:58.046Z,0.20
2019-01-08T19:28:46.151Z,0.13
2019-01-08T19:31:33.686Z,0.10
2019-01-08T19:34:21.193Z,0.10
2019-01-08T19:37:08.865Z,0.10
2019-01-08T19:39:57.214Z,0.00
2019-01-08T19:42:44.939Z,0.10
2019-01-08T19:45:34.172Z,0.70
2019-01-08T19:48:22.075Z,0.10
2019-01-08T19:51:11.185Z,0.00
2019-01-08T19:53:58.973Z,0.10
2019-01-08T19:56:46.598Z,0.00
2019-01-08T19:59:34.142Z,0.10
2019-01-08T20:02:22.040Z,0.10
2019-01-08T20:05:09.894Z,0.00
2019-01-08T20:07:57.707Z,0.00
2019-01-08T20:10:46.863Z,0.00
2019-01-08T20:13:34.770Z,0.00
2019-01-08T20:16:22.782Z,0.10
2019-01-08T20:19:14.307Z,0.00
2019-01-08T20:22:01.636Z,0.03
2019-01-08T20:24:49.602Z,0.10
2019-01-08T20:27:39.186Z,0.00
2019-01-08T20:30:26.619Z,0.10
2019-01-08T20:33:14.341Z,0.10
2019-01-08T20:36:01.935Z,0.00
2019-01-08T20:38:49.266Z,0.00
2019-01-08T20:41:38.370Z,0.10
2019-01-08T20:44:27.075Z,0.10
2019-01-08T20:47:14.683Z,0.00
2019-01-08T20:50:04.881Z,0.10
2019-01-08T20:52:52.714Z,0.00
2019-01-08T20:55:40.189Z,0.00
2019-01-08T20:58:29.037Z,0.03
2019-01-08T21:01:17.186Z,0.13
2019-01-08T21:04:04.713Z,0.00
2019-01-08T21:06:53.767Z,0.00
2019-01-08T21:09:42.270Z,0.10
2019-01-08T21:12:30.120Z,0.10
2019-01-08T21:15:18.077Z,0.10
2019-01-08T21:18:05.684Z,0.07
2019-01-08T21:20:55.284Z,0.10
2019-01-08T21:23:43.887Z,0.10
2019-01-08T21:26:33.901Z,0.00
2019-01-08T21:29:21.468Z,0.10
2019-01-08T21:32:09.175Z,0.10
2019-01-08T21:34:57.264Z,0.03
2019-01-08T21:37:45.837Z,0.10
2019-01-08T21:40:33.920Z,0.10
2019-01-08T21:43:21.587Z,0.00
2019-01-08T21:46:09.221Z,0.10
2019-01-08T21:48:57.384Z,0.10
2019-01-08T21:51:44.644Z,0.10
2019-01-08T21:54:32.442Z,0.00
2019-01-08T21:57:20.033Z,0.10
2019-01-08T22:00:08.469Z,0.07
2019-01-08T22:02:56.209Z,0.20
2019-01-08T22:05:44.007Z,0.10
2019-01-08T22:08:31.502Z,0.17
2019-01-08T22:11:19.071Z,0.00
2019-01-08T22:14:06.374Z,0.10
2019-01-08T22:16:54.443Z,0.10
2019-01-08T22:19:42.680Z,0.00
2019-01-08T22:22:30.733Z,0.10
2019-01-08T22:25:19.921Z,0.10
2019-01-08T22:28:07.659Z,0.07
2019-01-08T22:30:54.670Z,0.10
2019-01-08T22:33:42.075Z,0.00
2019-01-08T22:36:30.050Z,0.17
2019-01-08T22:39:17.910Z,0.10
2019-01-08T22:42:11.627Z,0.20
2019-01-08T22:44:58.953Z,0.00
2019-01-08T22:47:46.400Z,0.10
2019-01-08T22:50:34.433Z,0.20
2019-01-08T22:53:21.863Z,0.10
2019-01-08T22:56:10.836Z,0.00
2019-01-08T22:58:59.180Z,0.00
2019-01-08T23:01:48.826Z,0.10
2019-01-08T23:04:36.517Z,0.10
2019-01-08T23:07:24.174Z,0.10
2019-01-08T23:10:12.950Z,0.20
2019-01-08T23:13:01.624Z,0.20
2019-01-08T23:15:49.399Z,0.20
2019-01-08T23:18:36.867Z,0.20
2019-01-08T23:21:25.771Z,0.20
2019-01-08T23:24:12.771Z,0.30
2019-01-08T23:27:05.158Z,0.30
2019-01-08T23:29:53.289Z,0.30
2019-01-08T23:32:40.611Z,0.50
2019-01-08T23:35:28.012Z,0.67
2019-01-08T23:38:15.640Z,0.30
2019-01-08T23:41:03.269Z,0.50
2019-01-08T23:43:50.997Z,0.63
2019-01-08T23:46:38.942Z,0.97
2019-01-08T23:49:27.029Z,0.57
2019-01-08T23:52:23.175Z,0.73
2019-01-08T23:55:10.538Z,0.80
2019-01-08T23:57:57.892Z,0.73
